Appling, GA (30802)

5:27 AM EDT on October 31, 2014 (GMT -0400)
Crawford Creek Sub. | Change Station
CLOSE
Current Station
Personal Weather Station
Location: Evans, GA
Elevation: 308 ft
Nearby Weather Stations
Active Advisory: Lake Wind Advisory

Elev 308 ft 33.52 °N, 82.19 °W | Updated 59 seconds ago

Clear
Clear
40.9 °F
Feels Like 41 °F
N
0.0
Wind Variable Wind from NE
Gusts 0.0 mph

Today
High -- | Low -- °F
--% Chance of Precip.
Yesterday
High -- | Low -- °F
Precip. -- in
7:47 AM 6:38 PM
First Quarter, 53% visible
Pressure 29.96 in
Visibility 10.0 miles
Clouds Scattered Clouds 6000 ft
Windchill 41 °F
Dew Point 39 °F
Humidity 92%
Rainfall 0.00 in
Snow Depth Not available.
UV 0 out of 12
Pollen 2.90 out of 12
Air Quality Not available.
Flu Activity Not available.
METAR KHQU 310915Z AUTO 00000KT 10SM SCT060 06/06 A2996 RMK AO1 T00560056

More Conditions Fewer Conditions

Pressure 29.96 in
Visibility 10.0 miles
Clouds Scattered Clouds 6000 ft
Windchill 41 °F
Dew Point 39 °F
Humidity 92%
Rainfall 0.00 in
Snow Depth Not available.
UV 0 out of 12
Pollen 2.90 out of 12
Air Quality Not available.
Flu Activity Not available.
METAR KHQU 310915Z AUTO 00000KT 10SM SCT060 06/06 A2996 RMK AO1 T00560056

More Conditions Fewer Conditions

10-Day Weather Forecast

Almanac

Astronomy

Oct. 31, 2014 Rise Set
Actual Time
Civil Twilight
Nautical Twilight
Astronomical Twilight
Moon
Length of Visible Light
Length of Day
Tomorrow will be .
, % of the Moon is Illuminated

Today's Extremes

State Highs State Lows

Community

WunderPhotos

Upload Photos

1,766,576 photos uploaded!

WunderBlogs® & News

Nearby

Air Quality

  Air Quality AQ Index Pollutant
Not available.

Snow Depth

Station Depth Elevation

Earthquake Activity

City Distance Mag. Time & Date
Minimum magnitude displayed is 2.5.

Coastal Water Temperatures

Place Temperature

Nearby Weather Stations